This is the latest recevied weather packets stored in our database for station/object GOLDWX. If no packets are shown the sender has not sent any weather packets the latest 10 day(s).
| Time | Temp. | Humidity | Pressure | Rain* | Wind** | Luminosity | Snow |
|---|---|---|---|---|---|---|---|
| 1777557798 | 10° C | 53% | 1017 hPa | 0 mm | - | - | - |
| 1777557196 | 8.89° C | 58% | 1016.9 hPa | 0 mm | - | - | - |
| 1777556895 | 8.33° C | 60% | 1016.8 hPa | 0 mm | - | - | - |
| 1777556293 | 7.78° C | 61% | 1017 hPa | 0 mm | - | - | - |
| 1777556044 | 7.22° C | 62% | 1017 hPa | 0 mm | - | - | - |
| 1777555993 | 7.22° C | 62% | 1017 hPa | 0 mm | - | - | - |
| 1777555391 | 6.67° C | 64% | 1016.9 hPa | 0 mm | - | - | - |
| 1777555090 | 6.67° C | 63% | 1016.9 hPa | 0 mm | - | - | - |
| 1777554488 | 6.67° C | 63% | 1016.7 hPa | 0 mm | - | - | - |
| 1777554188 | 6.67° C | 62% | 1016.8 hPa | 0 mm | - | - | - |
| 1777553586 | 6.67° C | 62% | 1016.8 hPa | 0 mm | - | - | - |
| 1777553285 | 6.67° C | 62% | 1016.6 hPa | 0 mm | - | - | - |
| 1777552683 | 6.67° C | 61% | 1016.6 hPa | 0 mm | - | - | - |
| 1777552383 | 6.67° C | 62% | 1016.6 hPa | 0 mm | - | - | - |
| 1777551781 | 7.22° C | 60% | 1016.6 hPa | 0 mm | - | - | - |
| 1777551480 | 7.22° C | 59% | 1016.6 hPa | 0 mm | - | - | - |
| 1777550878 | 7.22° C | 58% | 1016.7 hPa | 0 mm | - | - | - |
| 1777550578 | 7.22° C | 58% | 1016.7 hPa | 0 mm | - | - | - |
| 1777549976 | 7.22° C | 58% | 1016.5 hPa | 0 mm | - | - | - |
| 1777549675 | 7.22° C | 58% | 1016.7 hPa | 0 mm | - | - | - |
| 1777549073 | 7.22° C | 59% | 1016.5 hPa | 0 mm | - | - | - |
| 1777548772 | 7.22° C | 60% | 1016.4 hPa | 0 mm | - | - | - |
| 1777548171 | 7.22° C | 62% | 1016.5 hPa | 0 mm | - | - | - |
| 1777547870 | 7.22° C | 61% | 1016.6 hPa | 0 mm | - | - | - |
| 1777547268 | 7.78° C | 57% | 1016.4 hPa | 0 mm | - | - | - |
* Rain since midnight (hover to see other rain measurements)
** Current wind speed in m/s (hover to see current wind gust speed)